Time;durP1;ratioP1;P1;durP2;ratioP2;P2;SDS_P1;SDS_P2;PMS_P1;PMS_P2;Temp;Humidity;BMP_temperature;BMP_pressure;BME280_temperature;BME280_humidity;BME280_pressure;Samples;Min_cycle;Max_cycle;Signal;HPM_P1;HPM_P2
2023/05/05 00:01:43;;;;;;;6.90;5.80;;;;;;;;;;5059865;28;20456;-47
2023/05/05 00:04:09;;;;;;;5.20;4.70;;;;;;;;;;5054003;27;20415;-46
2023/05/05 00:06:35;;;;;;;6.80;5.23;;;;;;;;;;5062400;27;20383;-45
2023/05/05 00:09:01;;;;;;;7.83;5.87;;;;;;;;;;5059028;27;20908;-47
2023/05/05 00:11:27;;;;;;;9.43;4.93;;;;;;;;;;5058288;28;20441;-47
2023/05/05 00:13:53;;;;;;;5.03;4.53;;;;;;;;;;5057948;28;20446;-46
2023/05/05 00:16:19;;;;;;;8.13;5.30;;;;;;;;;;5060019;27;20401;-47
2023/05/05 00:18:46;;;;;;;7.60;5.60;;;;;;;;;;5058275;28;20488;-47
2023/05/05 00:21:13;;;;;;;6.73;4.60;;;;;;;;;;5058664;28;20436;-47
2023/05/05 00:23:38;;;;;;;8.03;5.03;;;;;;;;;;5062175;28;20407;-47
2023/05/05 00:26:05;;;;;;;6.83;5.27;;;;;;;;;;5057219;27;20883;-46
2023/05/05 00:28:31;;;;;;;6.67;4.60;;;;;;;;;;5058130;28;20955;-47
2023/05/05 00:30:57;;;;;;;7.20;4.97;;;;;;;;;;5058447;28;20535;-47
2023/05/05 00:33:23;;;;;;;5.37;4.80;;;;;;;;;;5058241;28;20434;-46
2023/05/05 00:35:49;;;;;;;5.93;5.33;;;;;;;;;;5058410;28;20793;-46
2023/05/05 00:38:15;;;;;;;6.77;4.90;;;;;;;;;;5063336;27;20406;-48
2023/05/05 00:40:41;;;;;;;5.87;3.93;;;;;;;;;;5059943;28;20413;-45
2023/05/05 00:43:07;;;;;;;5.97;4.50;;;;;;;;;;5054101;27;20427;-47
2023/05/05 00:45:36;;;;;;;5.53;4.90;;;;;;;;;;5055804;27;20442;-46
2023/05/05 00:48:02;;;;;;;5.50;5.00;;;;;;;;;;5059997;28;20618;-47
2023/05/05 00:50:29;;;;;;;8.97;4.90;;;;;;;;;;5061914;27;20456;-48
2023/05/05 00:53:02;;;;;;;12.07;5.80;;;;;;;;;;5058641;28;20426;-46
2023/05/05 00:55:28;;;;;;;6.77;5.23;;;;;;;;;;5060250;27;20399;-48
2023/05/05 00:57:55;;;;;;;9.50;4.70;;;;;;;;;;5059841;28;20388;-47
2023/05/05 01:00:21;;;;;;;4.63;4.20;;;;;;;;;;5054488;28;20420;-47
2023/05/05 01:02:47;;;;;;;9.60;6.80;;;;;;;;;;5060267;28;20379;-46
2023/05/05 01:05:15;;;;;;;6.53;4.87;;;;;;;;;;5063920;27;20532;-46
2023/05/05 01:07:54;;;;;;;5.33;4.47;;;;;;;;;;5057443;27;20409;-47
2023/05/05 01:10:20;;;;;;;6.00;5.40;;;;;;;;;;5050756;28;20794;-47
2023/05/05 01:12:52;;;;;;;8.17;5.00;;;;;;;;;;5058358;28;20408;-45
2023/05/05 01:15:22;;;;;;;8.47;4.90;;;;;;;;;;5045940;27;20440;-47
2023/05/05 01:17:54;;;;;;;8.30;5.07;;;;;;;;;;5057772;28;20908;-48
2023/05/05 01:20:24;;;;;;;5.60;4.73;;;;;;;;;;5053229;28;20429;-46
2023/05/05 01:22:53;;;;;;;7.30;5.27;;;;;;;;;;5060968;28;20433;-47
2023/05/05 01:25:32;;;;;;;9.70;4.80;;;;;;;;;;5055713;28;20492;-45
2023/05/05 01:28:07;;;;;;;13.73;5.47;;;;;;;;;;5053019;28;20501;-46
2023/05/05 01:30:48;;;;;;;6.93;5.37;;;;;;;;;;5061064;28;20519;-47
2023/05/05 01:33:17;;;;;;;9.10;5.10;;;;;;;;;;5052760;28;20921;-45
2023/05/05 01:35:46;;;;;;;7.60;6.17;;;;;;;;;;5069408;27;20426;-46
2023/05/05 01:38:28;;;;;;;5.80;4.83;;;;;;;;;;5068780;27;20457;-45
2023/05/05 01:40:59;;;;;;;6.90;5.60;;;;;;;;;;5069276;28;20486;-45
2023/05/05 01:43:27;;;;;;;7.80;5.33;;;;;;;;;;5052201;27;20453;-46
2023/05/05 01:45:53;;;;;;;9.20;5.00;;;;;;;;;;5049293;28;20409;-46
2023/05/05 01:48:20;;;;;;;5.27;4.77;;;;;;;;;;5049206;28;20955;-46
2023/05/05 01:50:47;;;;;;;4.97;4.50;;;;;;;;;;5049226;28;20428;-46
2023/05/05 01:53:15;;;;;;;5.90;5.03;;;;;;;;;;5048931;28;20429;-46
2023/05/05 01:55:41;;;;;;;8.93;5.97;;;;;;;;;;5049623;28;20398;-47
2023/05/05 01:58:08;;;;;;;11.07;6.17;;;;;;;;;;5049287;28;20424;-48
2023/05/05 02:00:34;;;;;;;4.40;4.07;;;;;;;;;;5049095;28;20408;-47
2023/05/05 02:03:02;;;;;;;6.57;5.40;;;;;;;;;;5048805;28;20873;-47
2023/05/05 02:05:29;;;;;;;5.43;4.93;;;;;;;;;;5049049;28;20471;-48
2023/05/05 02:07:57;;;;;;;5.97;5.07;;;;;;;;;;5048925;28;20413;-47
2023/05/05 02:10:23;;;;;;;7.57;5.43;;;;;;;;;;5048801;28;20462;-46
2023/05/05 02:12:50;;;;;;;5.70;5.13;;;;;;;;;;5047413;28;21008;-46
2023/05/05 02:15:16;;;;;;;8.70;5.50;;;;;;;;;;5048694;28;20887;-46
2023/05/05 02:17:43;;;;;;;7.40;5.17;;;;;;;;;;5048719;28;20876;-47
2023/05/05 02:20:10;;;;;;;8.20;5.27;;;;;;;;;;5048717;28;20399;-48
2023/05/05 02:22:36;;;;;;;10.70;7.17;;;;;;;;;;5048460;28;20412;-47
2023/05/05 02:25:02;;;;;;;6.90;5.53;;;;;;;;;;5048686;28;20792;-47
2023/05/05 02:27:30;;;;;;;7.03;5.03;;;;;;;;;;5048727;28;20884;-47
2023/05/05 02:29:58;;;;;;;5.83;4.60;;;;;;;;;;5048714;28;20430;-48
2023/05/05 02:32:34;;;;;;;7.73;6.10;;;;;;;;;;5048537;28;20894;-45
2023/05/05 02:35:03;;;;;;;7.47;5.30;;;;;;;;;;5048617;28;20401;-47
2023/05/05 02:37:31;;;;;;;6.43;5.67;;;;;;;;;;5047870;28;20491;-48
2023/05/05 02:39:59;;;;;;;8.63;5.37;;;;;;;;;;5048695;28;20419;-47
2023/05/05 02:42:29;;;;;;;9.20;6.47;;;;;;;;;;5048542;28;20459;-47
2023/05/05 02:44:56;;;;;;;6.57;5.87;;;;;;;;;;5048452;28;20897;-45
2023/05/05 02:47:23;;;;;;;6.50;5.67;;;;;;;;;;5048472;28;20468;-47
2023/05/05 02:49:49;;;;;;;6.33;5.67;;;;;;;;;;5048305;28;20382;-46
2023/05/05 02:52:15;;;;;;;8.03;5.53;;;;;;;;;;5048252;28;20404;-47
2023/05/05 02:54:41;;;;;;;11.83;6.43;;;;;;;;;;5048229;28;20499;-47
2023/05/05 02:57:07;;;;;;;7.93;5.10;;;;;;;;;;5048297;28;20482;-47
2023/05/05 02:59:47;;;;;;;6.73;5.60;;;;;;;;;;5048282;28;20373;-46
2023/05/05 03:02:13;;;;;;;6.83;5.23;;;;;;;;;;5048239;28;20750;-45
2023/05/05 03:04:41;;;;;;;10.67;7.03;;;;;;;;;;5048028;28;20934;-47
2023/05/05 03:07:15;;;;;;;9.20;6.37;;;;;;;;;;5046938;28;20440;-47
2023/05/05 03:10:04;;;;;;;7.23;6.47;;;;;;;;;;5047978;27;20441;-45
2023/05/05 03:12:35;;;;;;;8.43;7.43;;;;;;;;;;5052964;28;20428;-46
2023/05/05 03:15:02;;;;;;;10.70;6.83;;;;;;;;;;5048537;28;20404;-47
2023/05/05 03:17:28;;;;;;;12.83;7.13;;;;;;;;;;5048136;28;20400;-48
2023/05/05 03:19:55;;;;;;;9.30;6.90;;;;;;;;;;5047973;28;20867;-46
2023/05/05 03:22:21;;;;;;;9.60;7.23;;;;;;;;;;5047957;28;20772;-48
2023/05/05 03:24:50;;;;;;;9.23;7.20;;;;;;;;;;5047973;28;20437;-47
2023/05/05 03:27:16;;;;;;;15.03;6.80;;;;;;;;;;5048337;28;20471;-46
2023/05/05 03:29:42;;;;;;;8.60;6.57;;;;;;;;;;5051225;28;20388;-48
2023/05/05 03:32:08;;;;;;;9.73;6.87;;;;;;;;;;5051302;28;20395;-46
2023/05/05 03:34:36;;;;;;;9.10;7.70;;;;;;;;;;5051021;28;20420;-46
2023/05/05 03:37:02;;;;;;;11.13;8.03;;;;;;;;;;5049137;28;20394;-47
2023/05/05 03:39:28;;;;;;;9.50;8.43;;;;;;;;;;5051003;28;20459;-45
2023/05/05 03:41:54;;;;;;;9.43;8.47;;;;;;;;;;5031219;28;20454;-48
2023/05/05 03:44:20;;;;;;;9.97;7.90;;;;;;;;;;5031098;28;20460;-47
2023/05/05 03:46:46;;;;;;;12.13;8.70;;;;;;;;;;5031362;28;20988;-46
2023/05/05 03:49:11;;;;;;;10.83;8.30;;;;;;;;;;5031327;28;20740;-47
2023/05/05 03:51:37;;;;;;;13.63;8.53;;;;;;;;;;5043415;28;20501;-47
2023/05/05 03:54:03;;;;;;;18.03;9.47;;;;;;;;;;5065050;28;20522;-46
2023/05/05 03:56:29;;;;;;;8.90;7.93;;;;;;;;;;5060938;28;20406;-48
2023/05/05 03:58:55;;;;;;;12.47;8.60;;;;;;;;;;5056977;27;20474;-47
2023/05/05 04:01:22;;;;;;;12.13;9.37;;;;;;;;;;5059282;27;20463;-47
2023/05/05 04:03:48;;;;;;;10.47;8.50;;;;;;;;;;5058697;28;20436;-48
2023/05/05 04:06:14;;;;;;;12.63;8.73;;;;;;;;;;5061509;28;20441;-47
2023/05/05 04:08:40;;;;;;;14.03;9.20;;;;;;;;;;5053512;28;20491;-46
2023/05/05 04:11:06;;;;;;;13.03;8.20;;;;;;;;;;5063322;28;20425;-47
2023/05/05 04:13:32;;;;;;;11.13;8.60;;;;;;;;;;5059110;28;20412;-47
2023/05/05 04:15:58;;;;;;;12.60;8.73;;;;;;;;;;5055363;27;20402;-48
2023/05/05 04:18:24;;;;;;;11.80;8.30;;;;;;;;;;5061894;28;20579;-45
2023/05/05 04:20:50;;;;;;;13.50;9.43;;;;;;;;;;5057420;28;20924;-48
2023/05/05 04:23:16;;;;;;;15.33;8.93;;;;;;;;;;5061991;27;20401;-48
2023/05/05 04:25:42;;;;;;;13.47;8.87;;;;;;;;;;5059473;27;20391;-47
2023/05/05 04:28:08;;;;;;;14.03;9.60;;;;;;;;;;5055198;28;20437;-46
2023/05/05 04:30:34;;;;;;;12.33;8.20;;;;;;;;;;5062010;27;20561;-48
2023/05/05 04:33:00;;;;;;;12.53;9.43;;;;;;;;;;5060096;27;20996;-46
2023/05/05 04:35:26;;;;;;;9.97;8.97;;;;;;;;;;5061875;28;20737;-46
2023/05/05 04:37:53;;;;;;;12.57;9.57;;;;;;;;;;5058364;27;20379;-45
2023/05/05 04:40:19;;;;;;;16.93;9.70;;;;;;;;;;5060476;28;20381;-46
2023/05/05 04:42:45;;;;;;;12.40;10.17;;;;;;;;;;5058148;28;20433;-45
2023/05/05 04:45:12;;;;;;;12.90;10.03;;;;;;;;;;5059464;27;20789;-47
2023/05/05 04:47:41;;;;;;;13.80;10.10;;;;;;;;;;5062926;28;20877;-46
2023/05/05 04:50:07;;;;;;;13.30;10.70;;;;;;;;;;5064458;28;20420;-47
2023/05/05 04:52:33;;;;;;;13.97;10.93;;;;;;;;;;5060570;28;20421;-47
2023/05/05 04:55:00;;;;;;;15.53;10.43;;;;;;;;;;5056273;28;20381;-48
2023/05/05 04:57:26;;;;;;;16.63;11.87;;;;;;;;;;5055954;28;20511;-47
2023/05/05 04:59:52;;;;;;;16.53;11.40;;;;;;;;;;5057527;28;20398;-48
2023/05/05 05:02:18;;;;;;;19.23;12.70;;;;;;;;;;5061393;28;20381;-47
2023/05/05 05:04:44;;;;;;;17.20;12.80;;;;;;;;;;5059997;28;20413;-47
2023/05/05 05:07:10;;;;;;;15.73;11.37;;;;;;;;;;5062700;28;20387;-48
2023/05/05 05:09:36;;;;;;;16.67;11.90;;;;;;;;;;5059157;28;20452;-46
2023/05/05 05:12:02;;;;;;;24.83;11.90;;;;;;;;;;5054508;28;20409;-47
2023/05/05 05:14:29;;;;;;;16.23;12.40;;;;;;;;;;5061056;28;20527;-58
2023/05/05 05:16:55;;;;;;;17.77;13.10;;;;;;;;;;5059316;28;20431;-47
2023/05/05 05:19:21;;;;;;;15.60;11.93;;;;;;;;;;5061089;28;20417;-47
2023/05/05 05:21:46;;;;;;;16.73;11.30;;;;;;;;;;5058130;28;20415;-46
2023/05/05 05:24:12;;;;;;;13.63;11.00;;;;;;;;;;5060335;28;20932;-47
2023/05/05 05:26:38;;;;;;;19.10;11.90;;;;;;;;;;5057789;28;20940;-46
2023/05/05 05:29:04;;;;;;;15.67;12.27;;;;;;;;;;5051548;28;20407;-47
2023/05/05 05:31:30;;;;;;;15.27;12.10;;;;;;;;;;5065257;28;20973;-47
2023/05/05 05:33:56;;;;;;;15.53;11.50;;;;;;;;;;5057343;28;20497;-46
2023/05/05 05:36:22;;;;;;;16.47;12.53;;;;;;;;;;5059511;28;20423;-47
2023/05/05 05:38:48;;;;;;;19.00;12.20;;;;;;;;;;5057387;28;20390;-47
2023/05/05 05:41:14;;;;;;;16.77;11.90;;;;;;;;;;5058920;28;20438;-47
2023/05/05 05:43:40;;;;;;;17.97;11.93;;;;;;;;;;5057045;28;20421;-46
2023/05/05 05:46:06;;;;;;;17.07;12.47;;;;;;;;;;5062370;28;20505;-46
2023/05/05 05:48:32;;;;;;;17.60;12.00;;;;;;;;;;5059917;28;20424;-44
2023/05/05 05:50:58;;;;;;;15.20;12.13;;;;;;;;;;5060115;28;20465;-44
2023/05/05 05:53:24;;;;;;;21.03;12.53;;;;;;;;;;5068762;28;20415;-44
2023/05/05 05:55:50;;;;;;;16.73;12.30;;;;;;;;;;5067790;28;20792;-44
2023/05/05 05:58:17;;;;;;;17.60;12.90;;;;;;;;;;5066943;28;20375;-44
2023/05/05 06:00:43;;;;;;;15.83;11.43;;;;;;;;;;5048146;27;20423;-44
2023/05/05 06:03:09;;;;;;;17.40;12.43;;;;;;;;;;5048939;28;20431;-44
2023/05/05 06:05:35;;;;;;;20.13;13.00;;;;;;;;;;5049142;28;20470;-44
2023/05/05 06:08:01;;;;;;;17.17;12.90;;;;;;;;;;5049051;28;20376;-45
2023/05/05 06:10:26;;;;;;;18.03;12.60;;;;;;;;;;5049474;28;20495;-44
2023/05/05 06:12:52;;;;;;;18.90;13.07;;;;;;;;;;5048823;28;20431;-45
2023/05/05 06:15:18;;;;;;;16.93;13.03;;;;;;;;;;5049020;28;20441;-46
2023/05/05 06:17:44;;;;;;;16.60;12.63;;;;;;;;;;5048963;28;20406;-44
2023/05/05 06:20:12;;;;;;;19.27;13.33;;;;;;;;;;5048455;28;20424;-44
2023/05/05 06:22:38;;;;;;;22.33;14.57;;;;;;;;;;5047525;28;20451;-44
2023/05/05 06:25:04;;;;;;;16.10;11.53;;;;;;;;;;5048662;28;20409;-44
2023/05/05 06:27:30;;;;;;;18.50;13.53;;;;;;;;;;5048827;28;20401;-44
2023/05/05 06:29:56;;;;;;;18.73;12.87;;;;;;;;;;5046860;28;20901;-44
2023/05/05 06:32:22;;;;;;;18.90;13.60;;;;;;;;;;5047910;28;20950;-46
2023/05/05 06:34:48;;;;;;;17.60;12.90;;;;;;;;;;5048567;28;20915;-46
2023/05/05 06:37:14;;;;;;;19.23;11.43;;;;;;;;;;5048592;28;20840;-44
2023/05/05 06:39:40;;;;;;;16.87;12.70;;;;;;;;;;5048541;28;20402;-44
2023/05/05 06:42:06;;;;;;;18.43;13.80;;;;;;;;;;5048632;28;20372;-44
2023/05/05 06:44:33;;;;;;;17.53;12.73;;;;;;;;;;5048229;28;20453;-44
2023/05/05 06:46:59;;;;;;;17.00;12.33;;;;;;;;;;5048420;28;20406;-44
2023/05/05 06:49:25;;;;;;;15.27;12.37;;;;;;;;;;5048419;28;20380;-44
2023/05/05 06:51:51;;;;;;;16.80;11.73;;;;;;;;;;5048402;28;20510;-44
2023/05/05 06:54:17;;;;;;;17.13;11.70;;;;;;;;;;5048120;28;20422;-44
2023/05/05 06:56:43;;;;;;;16.00;12.47;;;;;;;;;;5048667;28;20398;-44
2023/05/05 06:59:10;;;;;;;16.23;13.00;;;;;;;;;;5052227;28;20432;-44
2023/05/05 07:01:36;;;;;;;34.07;19.47;;;;;;;;;;5054280;28;20426;-46
2023/05/05 07:04:02;;;;;;;17.43;13.27;;;;;;;;;;5053661;28;20801;-45
2023/05/05 07:06:28;;;;;;;18.20;12.70;;;;;;;;;;5062986;28;20771;-44
2023/05/05 07:08:54;;;;;;;15.07;12.90;;;;;;;;;;5063639;28;20904;-44
2023/05/05 07:11:20;;;;;;;21.50;13.70;;;;;;;;;;5054598;28;20465;-45
2023/05/05 07:13:48;;;;;;;16.37;11.17;;;;;;;;;;5051582;28;20901;-44
2023/05/05 07:16:14;;;;;;;14.53;11.83;;;;;;;;;;5039604;28;20963;-46
2023/05/05 07:18:40;;;;;;;16.40;9.67;;;;;;;;;;5054069;28;20411;-44
2023/05/05 07:21:06;;;;;;;13.30;10.37;;;;;;;;;;5061866;28;20434;-44
2023/05/05 07:23:33;;;;;;;16.33;11.83;;;;;;;;;;5060574;28;20807;-45
2023/05/05 07:25:59;;;;;;;14.03;10.70;;;;;;;;;;5061717;28;20433;-46
2023/05/05 07:28:25;;;;;;;12.27;8.87;;;;;;;;;;5056755;28;20945;-45
2023/05/05 07:30:51;;;;;;;11.50;8.47;;;;;;;;;;5053341;27;20462;-45
2023/05/05 07:33:17;;;;;;;15.37;8.10;;;;;;;;;;5061702;27;20512;-44
2023/05/05 07:35:43;;;;;;;11.23;8.20;;;;;;;;;;5059202;28;20500;-44
2023/05/05 07:38:09;;;;;;;12.63;8.60;;;;;;;;;;5061445;28;20401;-47
2023/05/05 07:40:35;;;;;;;11.43;8.70;;;;;;;;;;5059230;28;20423;-44
2023/05/05 07:43:01;;;;;;;10.23;8.00;;;;;;;;;;5059523;28;20471;-44
2023/05/05 07:45:28;;;;;;;9.13;7.80;;;;;;;;;;5059257;28;20448;-44
2023/05/05 07:47:54;;;;;;;9.90;7.70;;;;;;;;;;5064542;28;20420;-44
2023/05/05 07:50:20;;;;;;;8.40;6.83;;;;;;;;;;5059140;28;20479;-44
2023/05/05 07:52:46;;;;;;;9.80;7.20;;;;;;;;;;5055440;27;20784;-44
2023/05/05 07:55:12;;;;;;;11.20;7.87;;;;;;;;;;5063335;28;20444;-45
2023/05/05 07:57:38;;;;;;;11.40;7.63;;;;;;;;;;5050834;28;20433;-44
2023/05/05 08:00:05;;;;;;;9.30;8.10;;;;;;;;;;5047421;28;20431;-45
2023/05/05 08:02:31;;;;;;;10.23;8.37;;;;;;;;;;5049296;28;20425;-44
2023/05/05 08:04:57;;;;;;;8.07;6.57;;;;;;;;;;5050912;28;20477;-44
2023/05/05 08:07:23;;;;;;;8.33;6.90;;;;;;;;;;5050809;28;20408;-45
2023/05/05 08:09:49;;;;;;;9.23;6.63;;;;;;;;;;5050776;28;20397;-46
2023/05/05 08:12:17;;;;;;;10.43;7.50;;;;;;;;;;5050737;28;20755;-47
2023/05/05 08:14:43;;;;;;;12.27;6.67;;;;;;;;;;5050207;28;20410;-45
2023/05/05 08:17:09;;;;;;;7.40;6.43;;;;;;;;;;5050429;28;20396;-45
2023/05/05 08:19:35;;;;;;;9.73;7.90;;;;;;;;;;5048416;28;20505;-45
2023/05/05 08:22:01;;;;;;;10.03;7.80;;;;;;;;;;5052594;28;20406;-45
2023/05/05 08:24:27;;;;;;;10.30;7.70;;;;;;;;;;5060116;27;20433;-46
2023/05/05 08:26:54;;;;;;;11.27;6.97;;;;;;;;;;5060199;28;20416;-45
2023/05/05 08:29:20;;;;;;;8.30;7.40;;;;;;;;;;5055294;28;21022;-47
2023/05/05 08:31:46;;;;;;;12.07;7.07;;;;;;;;;;5063244;27;20901;-45
2023/05/05 08:34:12;;;;;;;11.53;7.90;;;;;;;;;;5057943;27;20443;-44
2023/05/05 08:36:38;;;;;;;7.67;6.20;;;;;;;;;;5058622;27;20401;-45
2023/05/05 08:39:04;;;;;;;8.70;5.40;;;;;;;;;;5055150;28;20422;-45
2023/05/05 08:41:30;;;;;;;5.20;4.70;;;;;;;;;;5054341;28;20405;-45
2023/05/05 08:43:56;;;;;;;5.87;4.90;;;;;;;;;;5058555;28;20440;-45
2023/05/05 08:46:23;;;;;;;4.93;4.40;;;;;;;;;;5057433;28;20466;-45
2023/05/05 08:48:49;;;;;;;7.53;6.07;;;;;;;;;;5061724;28;20795;-46
2023/05/05 08:51:18;;;;;;;6.83;6.03;;;;;;;;;;5057302;28;20464;-44
2023/05/05 08:53:57;;;;;;;11.00;6.47;;;;;;;;;;5054832;27;20443;-48
2023/05/05 08:56:26;;;;;;;9.63;5.23;;;;;;;;;;5050712;28;20409;-46
2023/05/05 08:58:52;;;;;;;11.60;6.47;;;;;;;;;;5058020;28;21237;-45
2023/05/05 09:01:18;;;;;;;8.07;6.37;;;;;;;;;;5057805;27;20435;-45
2023/05/05 09:03:45;;;;;;;10.67;5.87;;;;;;;;;;5048705;28;20418;-46
2023/05/05 09:06:11;;;;;;;6.67;4.97;;;;;;;;;;5049909;28;20405;-45
2023/05/05 09:08:37;;;;;;;6.97;5.90;;;;;;;;;;5049746;28;20915;-45
2023/05/05 09:11:03;;;;;;;6.53;5.50;;;;;;;;;;5049735;28;20514;-44
2023/05/05 09:13:29;;;;;;;8.47;5.97;;;;;;;;;;5048004;28;20940;-44
2023/05/05 09:15:55;;;;;;;5.63;4.77;;;;;;;;;;5049730;28;20409;-45
2023/05/05 09:18:21;;;;;;;7.73;5.20;;;;;;;;;;5049839;28;20972;-45
2023/05/05 09:20:47;;;;;;;6.07;4.50;;;;;;;;;;5049537;28;20791;-45
2023/05/05 09:23:14;;;;;;;7.00;5.53;;;;;;;;;;5049292;28;20433;-46
2023/05/05 09:25:42;;;;;;;9.97;6.57;;;;;;;;;;5048962;28;20766;-45
2023/05/05 09:28:09;;;;;;;5.40;4.40;;;;;;;;;;5049425;28;20413;-45
2023/05/05 09:30:35;;;;;;;13.43;6.10;;;;;;;;;;5048761;28;20979;-46
2023/05/05 09:33:01;;;;;;;6.23;5.63;;;;;;;;;;5047864;27;20948;-45
2023/05/05 09:35:28;;;;;;;9.37;5.57;;;;;;;;;;5049476;28;20426;-45
2023/05/05 09:37:54;;;;;;;7.60;5.13;;;;;;;;;;5049313;28;20450;-45
2023/05/05 09:40:20;;;;;;;5.40;4.80;;;;;;;;;;5049145;28;20401;-46
2023/05/05 09:42:47;;;;;;;7.73;5.43;;;;;;;;;;5049302;28;20400;-45
2023/05/05 09:45:19;;;;;;;5.13;3.90;;;;;;;;;;5049285;28;20408;-45
2023/05/05 09:47:45;;;;;;;7.60;5.50;;;;;;;;;;5049163;28;20401;-45
2023/05/05 09:50:17;;;;;;;5.07;3.97;;;;;;;;;;5049157;28;20449;-44
2023/05/05 09:52:53;;;;;;;5.50;4.70;;;;;;;;;;5048930;28;20397;-47
2023/05/05 09:55:19;;;;;;;6.40;5.03;;;;;;;;;;5049199;28;20397;-45
2023/05/05 09:57:46;;;;;;;4.13;3.70;;;;;;;;;;5049114;28;20903;-45
2023/05/05 10:00:13;;;;;;;7.80;4.13;;;;;;;;;;5049113;28;20401;-45
2023/05/05 10:02:39;;;;;;;5.03;4.53;;;;;;;;;;5046903;28;20431;-45
2023/05/05 10:05:09;;;;;;;8.50;4.50;;;;;;;;;;5048388;28;20429;-47
2023/05/05 10:07:36;;;;;;;4.73;4.10;;;;;;;;;;5048871;28;20413;-45
2023/05/05 10:10:02;;;;;;;5.60;4.90;;;;;;;;;;5048336;28;20956;-46
2023/05/05 10:12:29;;;;;;;20.53;6.90;;;;;;;;;;5048707;28;20396;-46
2023/05/05 10:14:55;;;;;;;23.77;8.10;;;;;;;;;;5048868;28;20422;-45
2023/05/05 10:17:22;;;;;;;8.77;4.57;;;;;;;;;;5048835;28;20406;-45
2023/05/05 10:19:56;;;;;;;10.83;4.13;;;;;;;;;;5048565;28;20417;-46
2023/05/05 10:22:22;;;;;;;6.03;3.90;;;;;;;;;;5048951;28;20413;-45
2023/05/05 10:24:53;;;;;;;6.23;5.10;;;;;;;;;;5048798;28;20425;-45
2023/05/05 10:27:20;;;;;;;4.37;3.97;;;;;;;;;;5048710;28;20401;-46
2023/05/05 10:29:54;;;;;;;5.40;4.17;;;;;;;;;;5048776;28;20433;-46
2023/05/05 10:32:41;;;;;;;3.87;3.43;;;;;;;;;;5046622;28;20432;-48
2023/05/05 10:35:07;;;;;;;4.77;4.00;;;;;;;;;;5068437;28;20581;-46
2023/05/05 10:37:36;;;;;;;7.90;3.20;;;;;;;;;;5050930;28;20408;-46
2023/05/05 10:40:02;;;;;;;4.60;3.60;;;;;;;;;;5052109;28;20397;-45
2023/05/05 10:42:28;;;;;;;4.83;3.80;;;;;;;;;;5052046;28;20398;-46
2023/05/05 10:44:54;;;;;;;5.50;4.40;;;;;;;;;;5051333;28;20417;-45
2023/05/05 10:47:20;;;;;;;3.63;3.30;;;;;;;;;;5051674;28;20553;-45
2023/05/05 10:49:48;;;;;;;4.23;3.83;;;;;;;;;;5052091;28;20438;-45
2023/05/05 10:52:23;;;;;;;4.60;4.10;;;;;;;;;;5051958;28;20417;-45
2023/05/05 10:54:51;;;;;;;5.63;3.60;;;;;;;;;;5052085;28;20900;-45
2023/05/05 10:57:20;;;;;;;5.20;4.33;;;;;;;;;;5051889;28;20401;-47
2023/05/05 10:59:46;;;;;;;9.30;4.23;;;;;;;;;;5052030;28;20761;-46
2023/05/05 11:02:28;;;;;;;3.57;3.27;;;;;;;;;;5049418;28;20470;-48
2023/05/05 11:05:03;;;;;;;4.43;3.87;;;;;;;;;;5051903;28;20449;-47
2023/05/05 11:07:29;;;;;;;4.70;3.97;;;;;;;;;;5051880;28;20408;-48
2023/05/05 11:09:56;;;;;;;4.30;3.67;;;;;;;;;;5051588;28;20488;-47
2023/05/05 11:12:22;;;;;;;5.67;4.30;;;;;;;;;;5051722;28;20393;-50
2023/05/05 11:15:08;;;;;;;5.27;3.77;;;;;;;;;;5051777;28;20417;-45
2023/05/05 11:17:44;;;;;;;4.77;3.60;;;;;;;;;;5051680;28;20518;-45
2023/05/05 11:20:10;;;;;;;22.30;7.60;;;;;;;;;;5051567;28;20420;-45
2023/05/05 11:23:11;;;;;;;5.10;4.20;;;;;;;;;;5051213;28;20896;-45
2023/05/05 11:25:39;;;;;;;3.93;3.40;;;;;;;;;;5051569;28;20408;-45
2023/05/05 11:28:05;;;;;;;8.10;5.43;;;;;;;;;;5049139;28;20405;-45
2023/05/05 11:30:32;;;;;;;4.13;3.73;;;;;;;;;;5042326;28;20461;-45
2023/05/05 11:33:16;;;;;;;3.93;3.30;;;;;;;;;;5043129;28;20451;-44
2023/05/05 11:36:01;;;;;;;4.50;3.70;;;;;;;;;;5030628;28;20409;-45
2023/05/05 11:38:46;;;;;;;5.93;4.77;;;;;;;;;;5029289;28;20437;-47
2023/05/05 11:41:18;;;;;;;5.43;3.70;;;;;;;;;;5030879;28;20459;-46
2023/05/05 11:43:44;;;;;;;8.80;4.73;;;;;;;;;;5030404;28;20432;-45
2023/05/05 11:46:11;;;;;;;26.60;12.47;;;;;;;;;;5031424;28;20406;-47
2023/05/05 11:48:47;;;;;;;9.03;4.63;;;;;;;;;;5030641;28;20398;-45
2023/05/05 11:51:14;;;;;;;6.20;5.20;;;;;;;;;;5031227;28;20537;-45
2023/05/05 11:53:42;;;;;;;8.20;4.57;;;;;;;;;;5030810;28;20422;-45
2023/05/05 11:56:09;;;;;;;5.03;4.10;;;;;;;;;;5031087;28;20418;-44
2023/05/05 11:58:36;;;;;;;3.67;3.37;;;;;;;;;;5031053;28;20403;-45
2023/05/05 12:01:06;;;;;;;8.77;4.47;;;;;;;;;;5031259;28;20406;-45
2023/05/05 12:03:35;;;;;;;5.03;3.90;;;;;;;;;;5043896;28;20445;-47
2023/05/05 12:06:02;;;;;;;5.67;4.30;;;;;;;;;;5049754;28;20429;-45
2023/05/05 12:08:28;;;;;;;8.37;6.10;;;;;;;;;;5049692;28;20456;-44
2023/05/05 12:11:03;;;;;;;10.47;5.40;;;;;;;;;;5052393;27;20468;-44
2023/05/05 12:13:29;;;;;;;5.90;5.30;;;;;;;;;;5091930;27;20483;-45
2023/05/05 12:15:55;;;;;;;6.33;4.27;;;;;;;;;;5049862;28;20414;-44
2023/05/05 12:18:21;;;;;;;5.30;4.77;;;;;;;;;;5050105;28;20394;-45
2023/05/05 12:20:47;;;;;;;6.57;4.63;;;;;;;;;;5049374;28;20439;-45
2023/05/05 12:23:13;;;;;;;5.07;4.57;;;;;;;;;;5049681;28;20421;-46
2023/05/05 12:25:40;;;;;;;5.57;4.80;;;;;;;;;;5050477;28;20576;-44
2023/05/05 12:28:09;;;;;;;4.87;4.37;;;;;;;;;;5050451;28;20413;-48
2023/05/05 12:30:35;;;;;;;6.77;5.37;;;;;;;;;;5050495;28;20453;-44
2023/05/05 12:33:02;;;;;;;5.77;5.03;;;;;;;;;;5048099;28;20498;-44
2023/05/05 12:35:29;;;;;;;13.13;5.53;;;;;;;;;;5049708;28;20404;-46
2023/05/05 12:37:55;;;;;;;5.80;4.17;;;;;;;;;;5050298;28;20484;-44
2023/05/05 12:40:39;;;;;;;7.33;3.70;;;;;;;;;;5050418;28;20856;-44
2023/05/05 12:43:05;;;;;;;4.90;4.10;;;;;;;;;;5050061;28;20447;-44
2023/05/05 12:45:31;;;;;;;5.83;3.87;;;;;;;;;;5048705;28;20874;-44
2023/05/05 12:47:57;;;;;;;5.30;3.40;;;;;;;;;;5047939;28;20404;-44
2023/05/05 12:50:30;;;;;;;5.00;3.57;;;;;;;;;;5050064;28;20466;-43
2023/05/05 12:52:56;;;;;;;8.63;4.00;;;;;;;;;;5049855;28;20838;-45
2023/05/05 12:55:35;;;;;;;5.60;3.77;;;;;;;;;;5050109;28;20468;-44
2023/05/05 12:58:03;;;;;;;9.90;4.53;;;;;;;;;;5050003;28;20401;-45
2023/05/05 13:00:29;;;;;;;11.77;5.00;;;;;;;;;;5038629;28;20422;-48
2023/05/05 13:02:55;;;;;;;6.67;4.67;;;;;;;;;;5048177;28;20438;-46
2023/05/05 13:05:31;;;;;;;9.37;4.33;;;;;;;;;;5048491;28;20441;-46
2023/05/05 13:07:57;;;;;;;6.07;3.90;;;;;;;;;;5051150;28;20487;-47
2023/05/05 13:10:27;;;;;;;4.20;3.33;;;;;;;;;;5051027;28;20850;-47
2023/05/05 13:12:56;;;;;;;5.20;4.07;;;;;;;;;;5050557;28;20411;-46
2023/05/05 13:15:22;;;;;;;8.00;4.70;;;;;;;;;;5050786;28;20368;-46
2023/05/05 13:17:48;;;;;;;4.93;4.20;;;;;;;;;;5050928;28;20404;-46
2023/05/05 13:20:14;;;;;;;5.70;4.47;;;;;;;;;;5050135;28;20394;-48
2023/05/05 13:22:40;;;;;;;13.00;6.30;;;;;;;;;;5050415;28;20377;-48
2023/05/05 13:25:06;;;;;;;6.20;5.27;;;;;;;;;;5050934;28;20905;-47
2023/05/05 13:27:32;;;;;;;8.67;7.23;;;;;;;;;;5048917;28;20821;-47
2023/05/05 13:29:58;;;;;;;6.73;5.70;;;;;;;;;;5049617;28;20400;-48
2023/05/05 13:32:24;;;;;;;13.30;5.77;;;;;;;;;;5050444;28;20463;-48
2023/05/05 13:34:50;;;;;;;3.70;3.10;;;;;;;;;;5050573;27;20449;-47
2023/05/05 13:37:16;;;;;;;6.47;5.27;;;;;;;;;;5049694;28;20404;-47
2023/05/05 13:39:42;;;;;;;7.30;3.50;;;;;;;;;;5035781;28;20400;-49
2023/05/05 13:42:08;;;;;;;5.40;4.27;;;;;;;;;;5051630;28;20902;-49
2023/05/05 13:44:34;;;;;;;5.07;3.73;;;;;;;;;;5052673;27;20875;-49
2023/05/05 13:47:00;;;;;;;7.10;3.30;;;;;;;;;;5053846;28;20375;-50
2023/05/05 13:49:26;;;;;;;6.73;3.30;;;;;;;;;;5053210;27;20441;-48
2023/05/05 13:51:53;;;;;;;3.97;2.60;;;;;;;;;;5052986;28;20462;-49
2023/05/05 13:54:20;;;;;;;3.27;2.97;;;;;;;;;;5053490;28;20416;-49
2023/05/05 13:56:46;;;;;;;5.37;3.70;;;;;;;;;;5053366;28;20427;-49
2023/05/05 13:59:12;;;;;;;4.03;3.47;;;;;;;;;;5052800;28;20740;-49
2023/05/05 14:01:38;;;;;;;4.80;3.40;;;;;;;;;;5050858;28;20428;-49
2023/05/05 14:04:04;;;;;;;4.20;3.03;;;;;;;;;;5051545;28;20448;-49
2023/05/05 14:06:31;;;;;;;4.97;3.30;;;;;;;;;;5052183;28;20471;-49
2023/05/05 14:08:57;;;;;;;5.93;3.13;;;;;;;;;;5053902;28;20424;-48
2023/05/05 14:11:23;;;;;;;6.20;3.87;;;;;;;;;;5053413;28;20452;-50
2023/05/05 14:13:49;;;;;;;10.77;5.33;;;;;;;;;;5053046;28;20485;-48
2023/05/05 14:16:15;;;;;;;5.77;4.10;;;;;;;;;;5053150;28;20399;-48
2023/05/05 14:18:41;;;;;;;5.70;4.60;;;;;;;;;;5052793;28;20408;-49
2023/05/05 14:21:07;;;;;;;5.20;3.47;;;;;;;;;;5051619;28;20508;-49
2023/05/05 14:23:34;;;;;;;3.73;3.03;;;;;;;;;;5050688;28;20563;-49
2023/05/05 14:26:00;;;;;;;6.47;4.40;;;;;;;;;;5051053;28;20453;-49
2023/05/05 14:28:26;;;;;;;6.90;4.13;;;;;;;;;;5051030;28;20515;-49
2023/05/05 14:30:52;;;;;;;6.80;5.03;;;;;;;;;;5051960;28;20506;-50
2023/05/05 14:33:18;;;;;;;6.80;4.73;;;;;;;;;;5051004;28;20429;-49
2023/05/05 14:35:44;;;;;;;7.17;5.30;;;;;;;;;;5050744;28;20401;-49
2023/05/05 14:38:10;;;;;;;5.00;4.10;;;;;;;;;;5050278;28;20405;-49